Time;durP1;ratioP1;P1;durP2;ratioP2;P2;SDS_P1;SDS_P2;PMS_P1;PMS_P2;Temp;Humidity;BMP_temperature;BMP_pressure;BME280_temperature;BME280_humidity;BME280_pressure;Samples;Min_cycle;Max_cycle;Signal;HPM_P1;HPM_P2
2023/05/15 00:00:55;;;;;;;28.63;23.13;;;;;;;12.64;100.00;101479.19;5054217;28;21414;-70
2023/05/15 00:03:20;;;;;;;27.42;23.00;;;;;;;12.66;100.00;101475.41;5055781;28;20494;-70
2023/05/15 00:05:45;;;;;;;;;;;;;;;12.86;100.00;101472.72;5060370;28;20109;-70
2023/05/15 00:08:11;;;;;;;25.05;22.52;;;;;;;12.60;100.00;101464.41;5054106;28;19943;-70
2023/05/15 00:10:36;;;;;;;;;;;;;;;12.80;100.00;101468.78;5056307;28;20028;-70
2023/05/15 00:13:01;;;;;;;30.92;23.15;;;;;;;12.52;100.00;101464.25;5064880;28;19917;-70
2023/05/15 00:15:27;;;;;;;;;;;;;;;12.74;100.00;101463.13;5051018;28;20031;-70
2023/05/15 00:17:52;;;;;;;25.63;22.55;;;;;;;12.54;100.00;101465.81;5058712;28;19920;-71
2023/05/15 00:20:17;;;;;;;;;;;;;;;12.74;100.00;101460.47;5064690;28;20032;-70
2023/05/15 00:22:42;;;;;;;26.23;23.42;;;;;;;12.38;100.00;101458.34;5053309;28;19920;-70
2023/05/15 00:25:08;;;;;;;;;;;;;;;12.63;100.00;101456.09;5056775;28;20020;-70
2023/05/15 00:27:33;;;;;;;30.55;24.30;;;;;;;12.31;100.00;101467.91;5057783;28;19915;-70
2023/05/15 00:29:58;;;;;;;;;;;;;;;12.54;100.00;101460.47;5059493;28;20035;-70
2023/05/15 00:32:24;;;;;;;29.83;23.27;;;;;;;12.27;100.00;101440.59;5061440;28;19940;-69
2023/05/15 00:34:49;;;;;;;29.63;25.10;;;;;;;12.26;100.00;101444.25;5059865;28;20942;-70
2023/05/15 00:37:15;;;;;;;28.02;25.02;;;;;;;12.19;100.00;101451.13;5054231;28;20078;-70
2023/05/15 00:39:40;;;;;;;;;;;;;;;12.43;100.00;101439.19;5050255;28;20029;-70
2023/05/15 00:42:06;;;;;;;29.17;24.30;;;;;;;12.16;100.00;101443.38;5055924;28;19974;-70
2023/05/15 00:44:32;;;;;;;28.05;24.38;;;;;;;12.12;100.00;101450.00;5065155;28;20352;-70
2023/05/15 00:46:58;;;;;;;;;;;;;;;12.35;100.00;101441.72;5059673;28;20114;-70
2023/05/15 00:49:26;;;;;;;29.67;24.95;;;;;;;12.04;100.00;101450.69;5064471;28;19977;-70
2023/05/15 00:51:52;;;;;;;28.40;24.35;;;;;;;12.09;100.00;101445.75;5055236;28;20037;-70
2023/05/15 00:54:17;;;;;;;30.75;26.25;;;;;;;11.94;100.00;101446.28;5057862;28;20040;-70
2023/05/15 00:56:43;;;;;;;;;;;;;;;12.21;100.00;101448.31;5060749;28;20048;-70
2023/05/15 00:59:10;;;;;;;27.60;24.65;;;;;;;11.98;100.00;101442.38;5066015;28;19916;-70
2023/05/15 01:01:35;;;;;;;31.25;26.38;;;;;;;11.94;100.00;101439.13;5064175;28;20024;-70
2023/05/15 01:04:01;;;;;;;29.42;25.50;;;;;;;11.90;100.00;101437.66;5065742;28;20032;-70
2023/05/15 01:06:27;;;;;;;;;;;;;;;12.10;100.00;101447.47;5066526;28;20447;-70
2023/05/15 01:08:55;;;;;;;29.45;26.02;;;;;;;11.86;100.00;101438.91;5054689;28;19917;-70
2023/05/15 01:11:26;;;;;;;30.15;26.85;;;;;;;11.75;100.00;101423.84;5056898;28;20032;-70
2023/05/15 01:13:51;;;;;;;33.15;26.80;;;;;;;11.75;100.00;101426.50;5065028;28;20098;-70
2023/05/15 01:16:16;;;;;;;29.63;26.20;;;;;;;11.78;100.00;101423.56;5052978;28;20154;-70
2023/05/15 01:18:41;;;;;;;;;;;;;;;11.96;100.00;101425.63;5061411;28;20102;-71
2023/05/15 01:21:28;;;;;;;32.53;26.80;;;;;;;11.72;100.00;101426.78;5067900;28;20297;-70
2023/05/15 01:24:08;;;;;;;32.75;26.15;;;;;;;11.71;100.00;101430.41;5064901;28;20294;-70
2023/05/15 01:26:51;;;;;;;31.48;26.00;;;;;;;11.72;100.00;101430.28;5059346;28;20381;-70
2023/05/15 01:29:33;;;;;;;35.80;27.23;;;;;;;11.67;100.00;101419.16;5057721;28;20082;-70
2023/05/15 01:32:05;;;;;;;33.42;26.98;;;;;;;11.60;100.00;101426.03;5061557;28;20048;-70
2023/05/15 01:34:40;;;;;;;30.73;27.42;;;;;;;11.59;100.00;101416.34;5059562;28;20111;-70
2023/05/15 01:37:09;;;;;;;33.28;27.17;;;;;;;11.58;100.00;101425.31;5066406;28;20380;-70
2023/05/15 01:39:35;;;;;;;34.15;27.52;;;;;;;11.48;100.00;101413.75;5057920;28;20024;-70
2023/05/15 01:42:06;;;;;;;36.47;29.05;;;;;;;11.49;100.00;101418.13;5066788;28;20117;-69
2023/05/15 01:44:35;;;;;;;38.03;27.90;;;;;;;11.47;100.00;101412.06;5065888;28;20055;-70
2023/05/15 01:47:06;;;;;;;34.47;27.70;;;;;;;11.32;100.00;101409.72;5052932;28;20028;-70
2023/05/15 01:49:34;;;;;;;33.03;28.75;;;;;;;11.37;100.00;101417.34;5059940;28;20096;-70
2023/05/15 01:52:08;;;;;;;33.38;29.02;;;;;;;11.35;100.00;101408.63;5058586;28;20116;-70
2023/05/15 01:54:35;;;;;;;37.47;28.75;;;;;;;11.34;100.00;101402.47;5058691;28;20036;-70
2023/05/15 01:57:01;;;;;;;36.40;29.63;;;;;;;11.28;100.00;101402.97;5064690;28;20028;-70
2023/05/15 01:59:28;;;;;;;34.40;29.15;;;;;;;11.30;100.00;101409.03;5057350;28;20052;-70
2023/05/15 02:01:55;;;;;;;35.42;28.85;;;;;;;11.25;100.00;101397.06;5056487;28;20021;-70
2023/05/15 02:04:21;;;;;;;35.40;30.27;;;;;;;11.32;100.00;101399.06;5057316;28;20033;-70
2023/05/15 02:06:49;;;;;;;36.72;30.15;;;;;;;11.22;100.00;101400.84;5054147;28;20031;-70
2023/05/15 02:09:14;;;;;;;38.03;31.05;;;;;;;11.25;100.00;101395.22;5058724;28;20671;-70
2023/05/15 02:11:41;;;;;;;33.95;30.40;;;;;;;11.24;100.00;101398.91;5059800;28;20063;-70
2023/05/15 02:14:09;;;;;;;43.72;30.25;;;;;;;11.23;100.00;101394.53;5061829;28;20107;-70
2023/05/15 02:16:35;;;;;;;37.95;29.88;;;;;;;11.21;100.00;101399.16;5064206;28;20030;-70
2023/05/15 02:19:00;;;;;;;35.67;30.27;;;;;;;11.19;100.00;101405.63;5055526;28;20029;-70
2023/05/15 02:21:25;;;;;;;38.85;30.80;;;;;;;11.19;100.00;101401.13;5061938;28;20561;-70
2023/05/15 02:23:50;;;;;;;;;;;;;;;11.40;100.00;101403.75;5058288;28;20032;-70
2023/05/15 02:26:35;;;;;;;38.47;30.30;;;;;;;11.21;100.00;101401.00;5071271;28;19911;-70
2023/05/15 02:29:12;;;;;;;35.00;30.25;;;;;;;11.26;100.00;101402.28;5064481;28;20718;-70
2023/05/15 02:31:46;;;;;;;;;;;;;;;11.40;100.00;101400.22;5056474;28;20031;-70
2023/05/15 02:34:22;;;;;;;38.63;31.40;;;;;;;11.20;100.00;101397.44;5058200;28;19952;-70
2023/05/15 02:36:50;;;;;;;40.85;32.78;;;;;;;11.19;100.00;101402.94;5056488;28;20058;-70
2023/05/15 02:39:17;;;;;;;38.22;32.17;;;;;;;11.15;100.00;101419.22;5060519;28;20037;-70
2023/05/15 02:41:45;;;;;;;45.08;35.40;;;;;;;11.10;100.00;101420.59;5059037;28;20031;-70
2023/05/15 02:44:12;;;;;;;41.83;33.17;;;;;;;11.16;100.00;101418.22;5066979;28;20051;-70
2023/05/15 02:46:37;;;;;;;40.78;35.28;;;;;;;11.10;100.00;101418.78;5061090;28;20020;-70
2023/05/15 02:49:03;;;;;;;46.70;35.05;;;;;;;11.06;100.00;101411.16;5070982;28;20032;-70
2023/05/15 02:51:29;;;;;;;;;;;;;;;11.28;100.00;101424.34;5058079;28;20033;-70
2023/05/15 02:53:54;;;;;;;46.97;34.97;;;;;;;11.11;100.00;101422.28;5058137;28;19917;-70
2023/05/15 02:56:20;;;;;;;46.27;34.57;;;;;;;11.11;100.00;101414.28;5055650;28;20033;-70
2023/05/15 02:58:45;;;;;;;40.75;34.38;;;;;;;11.12;100.00;101414.16;5057840;28;20291;-70
2023/05/15 03:01:11;;;;;;;;;;;;;;;11.25;100.00;101407.75;5068664;28;20027;-70
2023/05/15 03:03:36;;;;;;;46.38;34.92;;;;;;;11.06;100.00;101411.16;5067241;28;19912;-70
2023/05/15 03:06:01;;;;;;;43.15;35.28;;;;;;;10.99;100.00;101416.16;5074687;28;20024;-70
2023/05/15 03:08:27;;;;;;;44.35;36.03;;;;;;;11.03;100.00;101406.94;5056354;28;20035;-69
2023/05/15 03:10:53;;;;;;;46.78;37.03;;;;;;;10.94;100.00;101410.41;5054124;28;20036;-69
2023/05/15 03:13:18;;;;;;;46.28;36.13;;;;;;;10.92;100.00;101399.84;5054562;28;20087;-69
2023/05/15 03:15:46;;;;;;;;;;;;;;;11.10;100.00;101408.09;5060299;28;20037;-70
2023/05/15 03:18:11;;;;;;;43.30;36.72;;;;;;;10.85;100.00;101403.16;5072105;28;19912;-69
2023/05/15 03:20:37;;;;;;;47.93;35.83;;;;;;;10.89;100.00;101400.09;5064864;28;20017;-70
2023/05/15 03:23:02;;;;;;;51.50;38.57;;;;;;;10.85;100.00;101404.03;5057206;28;20325;-69
2023/05/15 03:25:27;;;;;;;48.87;37.03;;;;;;;10.82;100.00;101404.28;5053624;28;20299;-69
2023/05/15 03:27:52;;;;;;;47.92;37.83;;;;;;;10.81;100.00;101407.91;5051225;28;20373;-69
2023/05/15 03:30:18;;;;;;;46.42;36.35;;;;;;;10.75;100.00;101405.78;5064651;28;20036;-69
2023/05/15 03:32:43;;;;;;;46.92;37.30;;;;;;;10.74;100.00;101396.06;5067142;28;20504;-69
2023/05/15 03:35:09;;;;;;;48.30;38.40;;;;;;;10.76;100.00;101399.44;5069826;28;20033;-69
2023/05/15 03:37:34;;;;;;;50.20;38.85;;;;;;;10.73;100.00;101395.22;5067265;28;20039;-69
2023/05/15 03:39:59;;;;;;;;;;;;;;;10.93;100.00;101396.19;5053248;28;20025;-70
2023/05/15 03:42:25;;;;;;;48.05;37.78;;;;;;;10.77;100.00;101393.97;5030351;28;20052;-70
2023/05/15 03:44:50;;;;;;;48.67;38.20;;;;;;;10.71;100.00;101390.97;5045231;28;20066;-69
2023/05/15 03:47:16;;;;;;;45.40;37.72;;;;;;;10.70;100.00;101387.47;5050176;28;20099;-70
2023/05/15 03:49:41;;;;;;;52.78;39.00;;;;;;;10.66;100.00;101388.72;5053744;28;20035;-70
2023/05/15 03:52:07;;;;;;;48.45;38.17;;;;;;;10.63;100.00;101386.31;5059827;28;20052;-70
2023/05/15 03:54:33;;;;;;;52.30;39.88;;;;;;;10.64;100.00;101380.00;5052146;28;20205;-70
2023/05/15 03:56:58;;;;;;;;;;;;;;;10.83;100.00;101383.75;5052577;28;20025;-70
2023/05/15 03:59:23;;;;;;;50.17;39.00;;;;;;;10.62;100.00;101389.94;5058626;28;20146;-71
2023/05/15 04:01:49;;;;;;;55.08;38.58;;;;;;;10.58;100.00;101385.84;5057440;28;20279;-69
2023/05/15 04:04:14;;;;;;;50.00;38.83;;;;;;;10.61;100.00;101398.94;5061624;28;20111;-69
2023/05/15 04:06:39;;;;;;;54.78;39.90;;;;;;;10.53;100.00;101380.88;5056833;28;20487;-69
2023/05/15 04:09:04;;;;;;;54.30;40.30;;;;;;;10.51;100.00;101380.19;5051572;28;20024;-69
2023/05/15 04:11:30;;;;;;;;;;;;;;;10.74;100.00;101382.72;5053781;28;20032;-69
2023/05/15 04:13:55;;;;;;;48.33;38.35;;;;;;;10.55;100.00;101378.97;5052955;28;19912;-70
2023/05/15 04:16:21;;;;;;;49.88;37.97;;;;;;;10.60;100.00;101390.06;5046668;28;20103;-69
2023/05/15 04:18:46;;;;;;;52.60;40.40;;;;;;;10.51;100.00;101382.84;5059965;28;20056;-69
2023/05/15 04:21:11;;;;;;;;;;;;;;;10.73;100.00;101386.38;5051294;28;20027;-69
2023/05/15 04:23:36;;;;;;;56.53;41.37;;;;;;;10.54;100.00;101384.41;5053360;28;19912;-69
2023/05/15 04:26:02;;;;;;;54.13;42.43;;;;;;;10.49;100.00;101383.97;5054275;28;20314;-69
2023/05/15 04:28:27;;;;;;;;;;;;;;;10.69;100.00;101385.78;5053558;28;20025;-69
2023/05/15 04:30:52;;;;;;;56.72;39.53;;;;;;;10.46;100.00;101386.88;5052350;28;19931;-69
2023/05/15 04:33:17;;;;;;;52.70;40.73;;;;;;;10.52;100.00;101394.38;5055175;28;20128;-69
2023/05/15 04:35:43;;;;;;;54.83;42.73;;;;;;;10.51;100.00;101398.00;5056644;28;20290;-69
2023/05/15 04:38:08;;;;;;;57.70;43.58;;;;;;;10.50;100.00;101391.84;5055204;28;20047;-69
2023/05/15 04:40:33;;;;;;;60.80;45.67;;;;;;;10.56;100.00;101406.47;5063888;28;20405;-70
2023/05/15 04:42:59;;;;;;;60.50;43.30;;;;;;;10.59;100.00;101401.72;5049311;28;20509;-69
2023/05/15 04:45:24;;;;;;;58.05;44.75;;;;;;;10.57;100.00;101416.16;5050824;28;20278;-69
2023/05/15 04:47:50;;;;;;;56.73;44.90;;;;;;;10.52;100.00;101419.22;5051628;28;20508;-70
2023/05/15 04:50:15;;;;;;;58.75;43.47;;;;;;;10.61;100.00;101420.28;5053423;28;20295;-69
2023/05/15 04:52:41;;;;;;;54.50;43.13;;;;;;;10.65;100.00;101421.69;5055371;28;20041;-69
2023/05/15 04:55:08;;;;;;;59.95;44.72;;;;;;;10.63;100.00;101429.00;5056856;28;20469;-69
2023/05/15 04:57:33;;;;;;;58.40;44.50;;;;;;;10.68;100.00;101418.78;5052431;28;20111;-68
2023/05/15 04:59:58;;;;;;;57.00;44.57;;;;;;;10.64;100.00;101412.03;5049554;28;20104;-69
2023/05/15 05:02:24;;;;;;;59.27;45.23;;;;;;;10.72;100.00;101417.53;5051136;28;20295;-70
2023/05/15 05:04:49;;;;;;;;;;;;;;;10.96;100.00;101427.13;5053320;28;20077;-70
2023/05/15 05:07:15;;;;;;;55.67;43.72;;;;;;;10.82;100.00;101406.94;5050547;28;19920;-69
2023/05/15 05:09:40;;;;;;;;;;;;;;;11.06;100.00;101411.16;5059754;28;20052;-69
2023/05/15 05:12:07;;;;;;;64.07;45.10;;;;;;;10.97;100.00;101423.47;5053782;28;19920;-69
2023/05/15 05:14:32;;;;;;;64.95;46.88;;;;;;;10.90;100.00;101424.97;5048708;28;20390;-69
2023/05/15 05:16:57;;;;;;;63.45;45.90;;;;;;;10.87;100.00;101426.09;5058531;28;20021;-71
2023/05/15 05:19:23;;;;;;;61.37;46.07;;;;;;;10.91;100.00;101426.66;5048987;28;20025;-70
2023/05/15 05:21:48;;;;;;;59.58;44.95;;;;;;;10.91;100.00;101432.84;5052766;28;20283;-71
2023/05/15 05:24:13;;;;;;;66.53;46.72;;;;;;;10.86;100.00;101434.22;5054605;28;20112;-70
2023/05/15 05:26:43;;;;;;;61.95;45.30;;;;;;;10.95;100.00;101431.59;5048622;28;20754;-70
2023/05/15 05:29:08;;;;;;;62.20;47.83;;;;;;;10.95;100.00;101436.09;5053100;28;20029;-71
2023/05/15 05:31:33;;;;;;;63.13;45.67;;;;;;;11.03;100.00;101438.97;5054028;28;20025;-71
2023/05/15 05:33:58;;;;;;;62.87;44.73;;;;;;;11.01;100.00;101448.94;5055399;28;20283;-70
2023/05/15 05:36:24;;;;;;;60.27;43.93;;;;;;;11.05;100.00;101449.53;5056571;28;20314;-70
2023/05/15 05:38:49;;;;;;;56.60;43.45;;;;;;;11.07;100.00;101447.56;5055140;28;20365;-70
2023/05/15 05:41:14;;;;;;;;;;;;;;;11.27;100.00;101446.72;5060281;28;20127;-70
2023/05/15 05:43:40;;;;;;;54.47;40.70;;;;;;;11.07;100.00;101453.75;5052451;28;20441;-70
2023/05/15 05:46:05;;;;;;;53.43;39.73;;;;;;;11.09;100.00;101458.94;5053998;28;20029;-70
2023/05/15 05:48:30;;;;;;;52.40;39.97;;;;;;;11.16;100.00;101460.94;5055315;28;20294;-70
2023/05/15 05:50:56;;;;;;;;;;;;;;;11.39;100.00;101457.28;5061133;28;20078;-70
2023/05/15 05:53:21;;;;;;;51.88;36.35;;;;;;;11.10;100.00;101461.50;5049122;28;19913;-69
2023/05/15 05:55:46;;;;;;;;;;;;;;;11.43;100.00;101456.91;5051121;28;20100;-69
2023/05/15 05:58:12;;;;;;;49.85;36.00;;;;;;;11.35;100.00;101446.88;5055882;28;19922;-69
2023/05/15 06:00:37;;;;;;;48.00;35.08;;;;;;;11.33;100.00;101451.50;5056513;28;20056;-69
2023/05/15 06:03:03;;;;;;;46.50;34.05;;;;;;;11.37;100.00;101453.91;5059938;28;20069;-69
2023/05/15 06:05:28;;;;;;;48.30;36.05;;;;;;;11.40;100.00;101454.50;5055058;28;20375;-69
2023/05/15 06:07:54;;;;;;;;;;;;;;;11.68;100.00;101454.75;5055672;28;20406;-69
2023/05/15 06:10:19;;;;;;;46.70;34.13;;;;;;;11.54;100.00;101454.13;5056795;28;20260;-69
2023/05/15 06:12:45;;;;;;;;;;;;;;;11.82;100.00;101453.56;5061609;28;20067;-69
2023/05/15 06:15:11;;;;;;;43.13;33.05;;;;;;;11.70;100.00;101447.44;5056676;28;19917;-69
2023/05/15 06:17:36;;;;;;;;;;;;;;;12.03;100.00;101467.72;5059034;28;20036;-69
2023/05/15 06:20:05;;;;;;;40.88;31.08;;;;;;;11.88;100.00;101451.16;5060040;28;20514;-69
2023/05/15 06:22:31;;;;;;;36.97;31.90;;;;;;;11.98;100.00;101453.06;5056541;28;20432;-69
2023/05/15 06:24:57;;;;;;;40.55;32.13;;;;;;;12.15;100.00;101459.56;5053397;28;20032;-69
2023/05/15 06:27:24;;;;;;;39.72;30.77;;;;;;;12.06;100.00;101458.56;5054430;28;20694;-69
2023/05/15 06:29:49;;;;;;;35.70;29.13;;;;;;;12.15;100.00;101467.59;5051785;28;20067;-69
2023/05/15 06:32:15;;;;;;;;;;;;;;;12.48;100.00;101464.56;5057213;28;20565;-69
2023/05/15 06:34:40;;;;;;;32.47;28.07;;;;;;;12.29;100.00;101457.34;5056007;28;20007;-69
2023/05/15 06:37:06;;;;;;;33.83;29.77;;;;;;;12.29;100.00;101454.66;5055480;28;20289;-69
2023/05/15 06:39:31;;;;;;;35.10;29.50;;;;;;;12.41;100.00;101451.84;5060764;28;20111;-69
2023/05/15 06:42:00;;;;;;;;;;;;;;;12.67;100.00;101458.38;5053141;28;20113;-69
2023/05/15 06:44:25;;;;;;;35.83;29.23;;;;;;;12.43;100.00;101453.41;5053388;28;19928;-69
2023/05/15 06:46:50;;;;;;;;;;;;;;;12.77;100.00;101452.16;5067398;28;20401;-69
2023/05/15 06:49:16;;;;;;;33.60;28.53;;;;;;;12.59;100.00;101452.03;5056300;28;19920;-68
2023/05/15 06:51:41;;;;;;;;;;;;;;;12.97;100.00;101448.47;5051878;28;20112;-69
2023/05/15 06:54:06;;;;;;;34.03;29.17;;;;;;;12.99;100.00;101445.63;5058630;28;20584;-69
2023/05/15 06:56:31;;;;;;;33.45;29.23;;;;;;;13.42;100.00;101455.00;5051136;28;20305;-69
2023/05/15 06:58:57;;;;;;;;;;;;;;;13.70;100.00;101452.38;5055277;28;20028;-69
2023/05/15 07:01:22;;;;;;;35.78;30.05;;;;;;;13.76;100.00;101454.44;5056130;28;19909;-69
2023/05/15 07:03:47;;;;;;;;;;;;;;;14.00;100.00;101446.69;5056049;28;20470;-69
2023/05/15 07:06:12;;;;;;;35.63;29.03;;;;;;;13.71;100.00;101454.03;5054818;28;19920;-69
2023/05/15 07:08:38;;;;;;;;;;;;;;;14.09;100.00;101449.47;5059803;28;20322;-69
2023/05/15 07:11:03;;;;;;;39.40;31.30;;;;;;;13.79;100.00;101436.22;5052522;28;19917;-69
2023/05/15 07:13:28;;;;;;;;;;;;;;;14.27;100.00;101454.88;5059923;28;20028;-68
2023/05/15 07:15:54;;;;;;;43.93;32.10;;;;;;;14.43;100.00;101448.81;5057758;28;19927;-69
2023/05/15 07:18:19;;;;;;;;;;;;;;;14.93;100.00;101451.81;5058771;28;20370;-69
2023/05/15 07:20:44;;;;;;;36.20;32.13;;;;;;;15.17;100.00;101446.78;5055743;28;19917;-69
2023/05/15 07:23:10;;;;;;;;;;;;;;;15.64;100.00;101449.06;5053021;28;20290;-69
2023/05/15 07:25:35;;;;;;;40.97;33.47;;;;;;;15.72;100.00;101448.25;5057465;28;19919;-69
2023/05/15 07:28:00;;;;;;;36.70;32.92;;;;;;;16.09;100.00;101445.22;5057485;28;20082;-69
2023/05/15 07:30:25;;;;;;;38.83;33.38;;;;;;;16.48;100.00;101441.94;5054893;28;20541;-69
2023/05/15 07:32:51;;;;;;;37.15;33.30;;;;;;;16.93;100.00;101445.16;5051308;28;20091;-69
2023/05/15 07:35:17;;;;;;;37.15;33.03;;;;;;;17.26;100.00;101435.16;5058003;28;20060;-69
2023/05/15 07:37:42;;;;;;;37.67;33.17;;;;;;;17.50;100.00;101433.44;5056643;28;20052;-69
2023/05/15 07:40:08;;;;;;;37.97;32.80;;;;;;;17.77;100.00;101432.13;5058429;28;20449;-69
2023/05/15 07:42:33;;;;;;;38.33;32.97;;;;;;;18.15;100.00;101435.03;5056690;28;20029;-69
2023/05/15 07:44:58;;;;;;;35.78;31.98;;;;;;;18.14;100.00;101431.50;5056601;28;20373;-69
2023/05/15 07:47:24;;;;;;;33.42;29.98;;;;;;;18.14;100.00;101434.19;5061493;28;20047;-69
2023/05/15 07:49:49;;;;;;;34.03;30.45;;;;;;;18.23;100.00;101429.56;5058684;28;20501;-69
2023/05/15 07:52:14;;;;;;;38.25;34.10;;;;;;;18.28;100.00;101432.56;5048729;28;21633;-69
2023/05/15 07:54:42;;;;;;;37.75;33.80;;;;;;;18.46;100.00;101420.63;5062925;28;20095;-69
2023/05/15 07:57:08;;;;;;;38.70;34.67;;;;;;;18.43;100.00;101419.13;5058724;28;20028;-69
2023/05/15 07:59:34;;;;;;;37.25;33.55;;;;;;;18.75;100.00;101414.47;5059703;28;20029;-69
2023/05/15 08:01:59;;;;;;;36.75;32.88;;;;;;;19.03;100.00;101419.31;5053062;28;20465;-70
2023/05/15 08:04:25;;;;;;;39.15;35.13;;;;;;;18.96;100.00;101418.38;5049886;28;20032;-70
2023/05/15 08:06:50;;;;;;;37.70;33.83;;;;;;;19.30;100.00;101420.53;5059417;28;20029;-70
2023/05/15 08:09:15;;;;;;;39.13;34.45;;;;;;;19.44;100.00;101419.72;5048199;28;20619;-69
2023/05/15 08:11:42;;;;;;;37.47;33.55;;;;;;;19.42;100.00;101418.22;5050291;28;20045;-69
2023/05/15 08:14:07;;;;;;;39.97;35.63;;;;;;;19.68;100.00;101419.59;5046924;28;20115;-69
2023/05/15 08:16:33;;;;;;;38.67;34.65;;;;;;;19.83;100.00;101420.47;5056892;28;20665;-70
2023/05/15 08:19:02;;;;;;;39.45;35.35;;;;;;;19.75;100.00;101415.16;5057671;28;20028;-70
2023/05/15 08:21:28;;;;;;;35.92;32.22;;;;;;;20.16;100.00;101423.56;5055883;28;20025;-69
2023/05/15 08:23:53;;;;;;;41.83;32.83;;;;;;;20.30;100.00;101423.69;5060862;28;21705;-69
2023/05/15 08:26:18;;;;;;;35.85;32.03;;;;;;;20.75;100.00;101424.34;5054592;28;20039;-69
2023/05/15 08:28:44;;;;;;;38.95;34.22;;;;;;;20.74;100.00;101428.09;5058229;28;20028;-69
2023/05/15 08:31:09;;;;;;;35.33;31.77;;;;;;;20.86;100.00;101429.25;5060470;28;20029;-70
2023/05/15 08:33:34;;;;;;;38.03;34.05;;;;;;;20.55;100.00;101422.25;5063190;28;20503;-70
2023/05/15 08:35:59;;;;;;;34.65;31.13;;;;;;;20.68;100.00;101416.16;5055479;28;20032;-69
2023/05/15 08:38:25;;;;;;;37.65;33.72;;;;;;;20.73;100.00;101419.13;5057734;28;20122;-70
2023/05/15 08:40:53;;;;;;;35.50;32.00;;;;;;;21.08;100.00;101424.59;5064466;28;20120;-70
2023/05/15 08:43:21;;;;;;;34.10;30.52;;;;;;;21.14;100.00;101426.53;5052678;28;20040;-69
2023/05/15 08:45:47;;;;;;;35.25;31.63;;;;;;;21.09;100.00;101429.00;5051875;28;20509;-70
2023/05/15 08:48:15;;;;;;;36.00;32.35;;;;;;;20.75;100.00;101419.75;5048531;28;20036;-70
2023/05/15 08:50:42;;;;;;;36.35;31.98;;;;;;;20.47;100.00;101416.13;5061918;28;20504;-70
2023/05/15 08:53:10;;;;;;;35.58;31.70;;;;;;;20.46;100.00;101423.44;5049592;28;20034;-70
2023/05/15 08:55:36;;;;;;;35.78;31.10;;;;;;;20.40;100.00;101421.50;5055848;28;20493;-70
2023/05/15 08:58:02;;;;;;;35.28;31.67;;;;;;;20.36;100.00;101418.34;5062477;28;20035;-70
2023/05/15 09:00:28;;;;;;;34.88;31.27;;;;;;;20.40;100.00;101421.50;5064296;28;20473;-70
2023/05/15 09:02:54;;;;;;;33.80;29.80;;;;;;;20.71;100.00;101414.94;5061118;28;20032;-70
2023/05/15 09:05:19;;;;;;;32.22;28.50;;;;;;;20.85;100.00;101415.88;5062353;28;20035;-70
2023/05/15 09:07:46;;;;;;;33.20;29.73;;;;;;;21.38;100.00;101418.13;5063539;28;20433;-70
2023/05/15 09:10:12;;;;;;;30.98;27.75;;;;;;;21.94;100.00;101417.16;5063185;28;20036;-70
2023/05/15 09:12:43;;;;;;;31.75;28.45;;;;;;;22.07;100.00;101417.16;5063819;28;20038;-70
2023/05/15 09:15:09;;;;;;;35.63;28.35;;;;;;;22.10;100.00;101414.88;5063521;28;20054;-70
2023/05/15 09:17:35;;;;;;;31.77;28.48;;;;;;;22.00;100.00;101416.31;5054006;28;20091;-70
2023/05/15 09:20:04;;;;;;;37.22;27.73;;;;;;;22.10;100.00;101414.03;5062992;28;20024;-70
2023/05/15 09:22:33;;;;;;;33.30;27.77;;;;;;;22.17;100.00;101414.91;5056395;28;20029;-70
2023/05/15 09:24:58;;;;;;;31.48;27.10;;;;;;;21.85;100.00;101409.16;5062145;28;20043;-70
2023/05/15 09:27:23;;;;;;;29.58;26.45;;;;;;;22.13;100.00;101418.25;5071957;28;20549;-70
2023/05/15 09:29:53;;;;;;;28.63;25.83;;;;;;;21.65;100.00;101405.53;5065139;28;20035;-70
2023/05/15 09:32:18;;;;;;;29.67;26.60;;;;;;;20.99;100.00;101404.09;5052795;28;20250;-70
2023/05/15 09:34:45;;;;;;;29.40;26.38;;;;;;;20.89;100.00;101409.03;5055862;28;20051;-70
2023/05/15 09:37:26;;;;;;;29.80;26.58;;;;;;;20.59;100.00;101415.41;5054278;28;20037;-70
2023/05/15 09:39:52;;;;;;;29.52;25.38;;;;;;;20.46;100.00;101414.44;5061672;28;20028;-70
2023/05/15 09:42:17;;;;;;;27.55;24.75;;;;;;;20.23;100.00;101422.78;5053574;28;20505;-70
2023/05/15 09:44:44;;;;;;;28.77;25.77;;;;;;;20.07;100.00;101408.44;5060114;28;20122;-69
2023/05/15 09:47:11;;;;;;;28.00;25.30;;;;;;;19.83;100.00;101412.34;5058346;28;20028;-70
2023/05/15 09:49:37;;;;;;;29.83;26.13;;;;;;;19.57;100.00;101415.53;5066375;28;20556;-70
2023/05/15 09:52:06;;;;;;;29.80;26.63;;;;;;;19.60;100.00;101421.41;5057796;28;20064;-70
2023/05/15 09:54:31;;;;;;;29.83;26.63;;;;;;;19.40;100.00;101409.47;5057171;28;20059;-70
2023/05/15 09:57:07;;;;;;;31.17;27.15;;;;;;;19.32;100.00;101414.94;5058404;28;20052;-70
2023/05/15 09:59:32;;;;;;;31.33;27.98;;;;;;;19.03;100.00;101416.63;5056513;28;20040;-69
2023/05/15 10:01:57;;;;;;;30.10;26.80;;;;;;;19.01;100.00;101413.25;5058191;28;20017;-70
2023/05/15 10:04:22;;;;;;;32.15;27.27;;;;;;;18.80;100.00;101420.19;5075453;28;20034;-70
2023/05/15 10:06:48;;;;;;;28.55;25.63;;;;;;;18.74;100.00;101420.91;5065493;28;20024;-69
2023/05/15 10:09:14;;;;;;;29.67;26.67;;;;;;;18.69;100.00;101416.06;5055404;28;20035;-70
2023/05/15 10:11:45;;;;;;;29.65;26.55;;;;;;;18.75;100.00;101417.19;5055418;28;20064;-70
2023/05/15 10:14:12;;;;;;;29.10;26.08;;;;;;;18.54;100.00;101422.44;5056159;28;20119;-69
2023/05/15 10:16:39;;;;;;;28.98;26.08;;;;;;;18.57;100.00;101419.38;5059791;28;20035;-70
2023/05/15 10:19:09;;;;;;;29.67;26.05;;;;;;;18.73;100.00;101424.63;5057920;28;20485;-69
2023/05/15 10:21:37;;;;;;;29.55;26.25;;;;;;;18.61;100.00;101424.22;5067571;28;20400;-69
2023/05/15 10:24:04;;;;;;;30.40;27.13;;;;;;;18.58;100.00;101423.75;5068787;28;20421;-69
2023/05/15 10:26:39;;;;;;;27.95;24.70;;;;;;;18.37;100.00;101427.94;5069503;28;20060;-70
2023/05/15 10:29:14;;;;;;;27.33;24.48;;;;;;;18.47;100.00;101431.25;5062602;28;20046;-70
2023/05/15 10:31:40;;;;;;;27.17;24.35;;;;;;;18.30;100.00;101430.53;5052967;28;20078;-70
2023/05/15 10:34:07;;;;;;;26.75;23.98;;;;;;;18.52;100.00;101430.72;5058059;28;20424;-70
2023/05/15 10:36:34;;;;;;;27.52;23.13;;;;;;;18.39;100.00;101422.34;5060395;28;20218;-70
2023/05/15 10:39:02;;;;;;;26.35;23.58;;;;;;;18.32;100.00;101433.06;5054453;28;20052;-71
2023/05/15 10:41:29;;;;;;;25.33;22.63;;;;;;;18.12;100.00;101433.50;5064381;28;20023;-71
2023/05/15 10:43:57;;;;;;;27.77;23.65;;;;;;;18.40;100.00;101427.59;5060729;28;20043;-70
2023/05/15 10:46:23;;;;;;;28.15;25.02;;;;;;;18.28;100.00;101435.25;5062895;28;20038;-71
2023/05/15 10:48:50;;;;;;;26.73;23.90;;;;;;;18.23;100.00;101431.41;5064433;28;20023;-71
2023/05/15 10:51:16;;;;;;;27.27;24.35;;;;;;;18.28;100.00;101432.56;5050937;28;20103;-70
2023/05/15 10:53:43;;;;;;;26.92;24.13;;;;;;;18.04;100.00;101430.00;5060384;28;20025;-70
2023/05/15 10:56:17;;;;;;;26.70;23.92;;;;;;;18.07;100.00;101427.78;5061999;28;20027;-70
2023/05/15 10:58:50;;;;;;;26.40;23.58;;;;;;;18.13;100.00;101427.09;5065512;28;20446;-71
2023/05/15 11:01:33;;;;;;;25.55;23.02;;;;;;;18.35;100.00;101429.97;5064249;28;20062;-70
2023/05/15 11:04:13;;;;;;;26.85;23.70;;;;;;;18.22;100.00;101432.44;5056619;28;20913;-71
2023/05/15 11:06:42;;;;;;;26.50;23.75;;;;;;;18.12;100.00;101430.78;5059514;28;20025;-70
2023/05/15 11:09:20;;;;;;;27.40;24.70;;;;;;;18.13;100.00;101431.66;5052512;28;20028;-70